createdAt,value
2017-03-25T00:00:47.027Z,15.63
2017-03-25T00:01:46.971Z,15.63
2017-03-25T00:02:46.912Z,15.63
2017-03-25T00:03:46.841Z,15.63
2017-03-25T00:04:46.783Z,15.53
2017-03-25T00:05:46.717Z,15.73
2017-03-25T00:06:46.655Z,15.63
2017-03-25T00:07:46.590Z,15.83
2017-03-25T00:08:46.527Z,15.63
2017-03-25T00:09:46.468Z,15.73
2017-03-25T00:10:46.553Z,15.63
2017-03-25T00:11:46.496Z,15.83
2017-03-25T00:12:46.277Z,15.63
2017-03-25T00:13:46.216Z,15.83
2017-03-25T00:14:46.157Z,15.63
2017-03-25T00:15:46.090Z,15.83
2017-03-25T00:16:46.027Z,15.73
2017-03-25T00:17:45.971Z,15.83
2017-03-25T00:18:45.901Z,15.73
2017-03-25T00:19:45.547Z,15.63
2017-03-25T00:20:45.778Z,15.73
2017-03-25T00:21:45.715Z,15.83
2017-03-25T00:22:45.653Z,15.63
2017-03-25T00:23:45.591Z,15.73
2017-03-25T00:24:45.534Z,15.53
2017-03-25T00:25:45.467Z,15.73
2017-03-25T00:26:45.403Z,15.53
2017-03-25T00:27:45.339Z,15.44
2017-03-25T00:28:45.277Z,16.02
2017-03-25T00:29:45.216Z,15.83
2017-03-25T00:30:45.402Z,15.63
2017-03-25T00:31:45.093Z,15.73
2017-03-25T00:32:45.036Z,16.02
2017-03-25T00:33:44.964Z,15.83
2017-03-25T00:34:44.905Z,15.73
2017-03-25T00:35:44.845Z,16.02
2017-03-25T00:36:44.778Z,15.83
2017-03-25T00:37:44.726Z,15.73
2017-03-25T00:38:44.652Z,15.92
2017-03-25T00:39:44.591Z,15.92
2017-03-25T00:40:44.230Z,15.83
2017-03-25T00:41:44.466Z,15.83
2017-03-25T00:42:44.104Z,15.92
2017-03-25T00:43:44.342Z,15.92
2017-03-25T00:44:44.283Z,15.73
2017-03-25T00:45:44.220Z,15.63
2017-03-25T00:46:44.156Z,15.73
2017-03-25T00:47:44.091Z,15.83
2017-03-25T00:48:44.029Z,15.73
2017-03-25T00:49:43.968Z,15.92
2017-03-25T00:50:43.906Z,15.83
2017-03-25T00:51:43.841Z,15.83
2017-03-25T00:52:43.483Z,15.92
2017-03-25T00:53:43.719Z,15.63
2017-03-25T00:54:43.655Z,15.73
2017-03-25T00:55:43.596Z,15.63
2017-03-25T00:56:43.530Z,15.73
2017-03-25T00:57:43.468Z,15.83
2017-03-25T00:58:43.405Z,15.73
2017-03-25T00:59:43.342Z,15.83
2017-03-25T01:01:13.309Z,15.63
2017-03-25T01:02:12.990Z,15.83
2017-03-25T01:03:12.931Z,15.73
2017-03-25T01:04:12.863Z,15.73
2017-03-25T01:05:12.805Z,15.73
2017-03-25T01:06:12.742Z,15.73
2017-03-25T01:07:12.829Z,15.92
2017-03-25T01:08:12.627Z,15.92
2017-03-25T01:09:12.551Z,15.73
2017-03-25T01:10:12.491Z,15.92
2017-03-25T01:11:12.427Z,15.83
2017-03-25T01:12:12.364Z,15.63
2017-03-25T01:13:12.301Z,15.83
2017-03-25T01:14:12.243Z,15.92
2017-03-25T01:15:12.178Z,15.83
2017-03-25T01:16:12.116Z,15.83
2017-03-25T01:17:12.087Z,15.92
2017-03-25T01:18:11.990Z,15.83
2017-03-25T01:19:11.926Z,16.02
2017-03-25T01:20:11.865Z,15.83
2017-03-25T01:21:11.506Z,15.92
2017-03-25T01:22:11.745Z,15.92
2017-03-25T01:23:11.683Z,15.92
2017-03-25T01:24:11.616Z,16.11
2017-03-25T01:25:11.553Z,16.11
2017-03-25T01:26:11.492Z,16.02
2017-03-25T01:27:11.430Z,16.02
2017-03-25T01:28:11.365Z,16.02
2017-03-25T01:29:11.305Z,15.92
2017-03-25T01:30:11.240Z,15.92
2017-03-25T01:31:11.176Z,15.83
2017-03-25T01:32:11.116Z,15.92
2017-03-25T01:33:11.051Z,16.02
2017-03-25T01:34:10.991Z,16.02
2017-03-25T01:35:10.928Z,16.02
2017-03-25T01:36:10.866Z,15.92
2017-03-25T01:37:10.801Z,16.02
2017-03-25T01:38:10.743Z,15.92
2017-03-25T01:39:10.695Z,16.11
2017-03-25T01:40:10.616Z,16.02
2017-03-25T01:41:10.553Z,16.02
2017-03-25T01:42:10.490Z,15.92
2017-03-25T01:43:10.427Z,15.92
2017-03-25T01:44:10.364Z,16.11
2017-03-25T01:45:10.303Z,16.11
2017-03-25T01:46:10.242Z,15.92
2017-03-25T01:47:10.179Z,16.11
2017-03-25T01:48:10.116Z,16.11
2017-03-25T01:49:10.052Z,16.02
2017-03-25T01:50:09.991Z,16.11
2017-03-25T01:51:09.928Z,16.02
2017-03-25T01:52:09.865Z,16.11
2017-03-25T01:53:09.804Z,16.11
2017-03-25T01:54:09.739Z,16.11
2017-03-25T01:55:09.678Z,16.11
2017-03-25T01:56:09.625Z,16.11
2017-03-25T01:57:09.554Z,16.11
2017-03-25T01:58:09.495Z,16.11
2017-03-25T01:59:09.429Z,16.11
2017-03-25T02:00:09.368Z,16.11
2017-03-25T02:01:09.305Z,16.02
2017-03-25T02:02:08.942Z,16.11
2017-03-25T02:03:09.179Z,16.11
2017-03-25T02:04:09.116Z,16.02
2017-03-25T02:05:09.053Z,16.02
2017-03-25T02:06:08.991Z,16.11
2017-03-25T02:07:08.934Z,16.21
2017-03-25T02:08:08.566Z,16.11
2017-03-25T02:09:08.805Z,16.02
2017-03-25T02:10:08.993Z,16.02
2017-03-25T02:11:08.683Z,16.21
2017-03-25T02:12:08.616Z,16.11
2017-03-25T02:13:08.558Z,16.11
2017-03-25T02:14:08.496Z,16.11
2017-03-25T02:15:08.431Z,16.11
2017-03-25T02:16:08.367Z,16.11
2017-03-25T02:17:08.303Z,16.21
2017-03-25T02:18:08.241Z,16.02
2017-03-25T02:19:08.219Z,16.21
2017-03-25T02:20:08.266Z,16.21
2017-03-25T02:21:08.054Z,16.11
2017-03-25T02:22:07.991Z,16.02
2017-03-25T02:23:07.930Z,15.92
2017-03-25T02:24:07.568Z,16.02
2017-03-25T02:25:07.803Z,16.11
2017-03-25T02:26:07.443Z,16.21
2017-03-25T02:27:07.679Z,16.02
2017-03-25T02:28:07.615Z,16.21
2017-03-25T02:29:07.555Z,16.11
2017-03-25T02:30:07.496Z,16.02
2017-03-25T02:31:07.432Z,16.21
2017-03-25T02:32:07.370Z,16.02
2017-03-25T02:33:07.305Z,16.02
2017-03-25T02:34:07.241Z,16.11
2017-03-25T02:35:07.182Z,15.92
2017-03-25T02:36:07.118Z,16.02
2017-03-25T02:37:07.055Z,16.11
2017-03-25T02:38:06.993Z,16.11
2017-03-25T02:39:06.934Z,16.11
2017-03-25T02:40:06.570Z,16.02
2017-03-25T02:41:06.806Z,16.11
2017-03-25T02:42:06.743Z,16.21
2017-03-25T02:43:06.681Z,15.92
2017-03-25T02:44:06.618Z,15.92
2017-03-25T02:45:06.593Z,16.31
2017-03-25T02:46:06.494Z,16.02
2017-03-25T02:47:06.436Z,15.92
2017-03-25T02:48:06.368Z,15.92
2017-03-25T02:49:06.310Z,16.02
2017-03-25T02:50:06.246Z,15.92
2017-03-25T02:51:06.182Z,16.21
2017-03-25T02:52:06.119Z,15.92
2017-03-25T02:53:06.059Z,16.02
2017-03-25T02:54:05.996Z,16.02
2017-03-25T02:55:05.932Z,15.92
2017-03-25T02:56:05.871Z,16.02
2017-03-25T02:57:05.805Z,15.92
2017-03-25T02:58:05.749Z,16.02
2017-03-25T02:59:05.682Z,16.02
2017-03-25T03:00:05.421Z,16.02
2017-03-25T03:01:05.555Z,15.92
2017-03-25T03:02:05.499Z,16.02
2017-03-25T03:03:05.437Z,15.92
2017-03-25T03:04:05.379Z,16.02
2017-03-25T03:05:05.007Z,16.02
2017-03-25T03:06:05.247Z,15.92
2017-03-25T03:07:05.183Z,15.92
2017-03-25T03:08:05.123Z,15.92
2017-03-25T03:09:05.057Z,15.92
2017-03-25T03:10:04.997Z,16.02
2017-03-25T03:11:04.933Z,15.92
2017-03-25T03:12:04.868Z,15.92
2017-03-25T03:13:04.806Z,16.02
2017-03-25T03:14:04.746Z,16.02
2017-03-25T03:15:04.934Z,15.92
2017-03-25T03:16:04.619Z,16.02
2017-03-25T03:17:04.555Z,16.02
2017-03-25T03:18:04.494Z,16.02
2017-03-25T03:19:04.430Z,15.92
2017-03-25T03:20:04.375Z,15.92
2017-03-25T03:21:04.306Z,15.83
2017-03-25T03:22:04.245Z,16.02
2017-03-25T03:23:04.184Z,15.92
2017-03-25T03:24:04.119Z,15.83
2017-03-25T03:25:04.058Z,15.73
2017-03-25T03:26:04.245Z,16.31
2017-03-25T03:27:03.934Z,16.21
2017-03-25T03:28:03.870Z,16.02
2017-03-25T03:29:03.809Z,16.31
2017-03-25T03:30:03.743Z,16.31
2017-03-25T03:31:03.697Z,16.21
2017-03-25T03:32:03.618Z,16.21
2017-03-25T03:33:03.559Z,15.92
2017-03-25T03:34:03.242Z,16.11
2017-03-25T03:35:03.431Z,15.92
2017-03-25T03:36:03.369Z,16.31
2017-03-25T03:37:03.306Z,15.83
2017-03-25T03:38:03.245Z,16.31
2017-03-25T03:39:03.185Z,16.31
2017-03-25T03:40:03.128Z,16.31
2017-03-25T03:41:03.056Z,16.21
2017-03-25T03:42:02.996Z,16.21
2017-03-25T03:43:02.932Z,16.69
2017-03-25T03:44:02.868Z,16.21
2017-03-25T03:45:02.804Z,16.21
2017-03-25T03:46:02.745Z,16.79
2017-03-25T03:47:02.682Z,16.41
2017-03-25T03:48:02.619Z,16.41
2017-03-25T03:49:02.555Z,16.41
2017-03-25T03:50:02.495Z,16.31
2017-03-25T03:51:02.431Z,16.69
2017-03-25T03:52:02.368Z,16.31
2017-03-25T03:53:02.329Z,16.41
2017-03-25T03:54:02.246Z,16.31
2017-03-25T03:55:02.184Z,16.69
2017-03-25T03:56:02.118Z,16.5
2017-03-25T03:57:02.060Z,16.41
2017-03-25T03:58:01.997Z,16.5
2017-03-25T03:59:01.932Z,16.31
2017-03-25T04:00:01.870Z,16.31
2017-03-25T04:01:01.806Z,16.6
2017-03-25T04:02:01.744Z,16.41
2017-03-25T04:03:01.682Z,16.31
2017-03-25T04:04:01.621Z,16.5
2017-03-25T04:05:01.564Z,16.21
2017-03-25T04:06:01.494Z,16.5
2017-03-25T04:07:01.431Z,16.6
2017-03-25T04:08:01.372Z,16.69
2017-03-25T04:09:01.309Z,16.21
2017-03-25T04:10:01.247Z,16.6
2017-03-25T04:11:01.182Z,16.31
2017-03-25T04:12:01.121Z,16.21
2017-03-25T04:13:01.060Z,16.6
2017-03-25T04:14:00.994Z,16.31
2017-03-25T04:15:00.934Z,16.5
2017-03-25T04:16:00.872Z,16.21
2017-03-25T04:17:00.808Z,16.21
2017-03-25T04:18:00.746Z,16.5
2017-03-25T04:19:00.684Z,16.21
2017-03-25T04:20:00.621Z,16.31
2017-03-25T04:21:00.560Z,16.21
2017-03-25T04:22:00.495Z,16.21
2017-03-25T04:23:00.439Z,16.11
2017-03-25T04:24:00.371Z,16.21
2017-03-25T04:25:00.309Z,16.21
2017-03-25T04:26:00.243Z,16.31
2017-03-25T04:27:00.183Z,16.21
2017-03-25T04:28:00.134Z,16.31
2017-03-25T04:29:00.067Z,16.31
2017-03-25T04:30:00.008Z,16.31
2017-03-25T04:30:59.942Z,16.11
2017-03-25T04:31:59.580Z,16.21
2017-03-25T04:32:59.822Z,16.41
2017-03-25T04:33:59.758Z,16.21
2017-03-25T04:34:59.695Z,16.21
2017-03-25T04:35:59.622Z,16.41
2017-03-25T04:36:59.566Z,16.5
2017-03-25T04:37:59.497Z,16.11
2017-03-25T04:38:59.448Z,16.11
2017-03-25T04:39:59.372Z,16.11
2017-03-25T04:40:59.308Z,16.11
2017-03-25T04:41:59.248Z,16.11
2017-03-25T04:42:59.199Z,16.11
2017-03-25T04:43:59.132Z,16.02
2017-03-25T04:44:59.059Z,16.21
2017-03-25T04:45:59.003Z,16.11
2017-03-25T04:46:58.933Z,16.11
2017-03-25T04:47:58.882Z,16.11
2017-03-25T04:48:58.810Z,16.11
2017-03-25T04:49:58.755Z,16.11
2017-03-25T04:50:58.682Z,16.21
2017-03-25T04:51:58.622Z,16.11
2017-03-25T04:52:58.560Z,16.21
2017-03-25T04:53:58.500Z,16.11
2017-03-25T04:54:58.433Z,16.6
2017-03-25T04:55:58.368Z,16.41
2017-03-25T04:56:58.309Z,16.5
2017-03-25T04:57:58.248Z,16.5
2017-03-25T04:58:58.184Z,16.41
2017-03-25T04:59:58.120Z,16.5
2017-03-25T05:00:58.057Z,16.41
2017-03-25T05:01:57.995Z,16.11
2017-03-25T05:02:57.934Z,16.5
2017-03-25T05:03:57.872Z,16.6
2017-03-25T05:04:57.808Z,16.41
2017-03-25T05:05:57.745Z,16.6
2017-03-25T05:06:57.691Z,16.6
2017-03-25T05:07:57.622Z,16.6
2017-03-25T05:08:57.559Z,16.5
2017-03-25T05:09:57.497Z,16.6
2017-03-25T05:10:57.433Z,16.5
2017-03-25T05:11:57.380Z,16.79
2017-03-25T05:12:57.308Z,16.6
2017-03-25T05:13:57.250Z,16.6
2017-03-25T05:14:57.185Z,16.5
2017-03-25T05:15:57.118Z,16.6
2017-03-25T05:16:57.057Z,16.6
2017-03-25T05:17:56.997Z,16.6
2017-03-25T05:18:56.936Z,16.6
2017-03-25T05:19:56.869Z,16.6
2017-03-25T05:20:56.507Z,16.6
2017-03-25T05:21:56.446Z,16.6
2017-03-25T05:22:56.687Z,16.89
2017-03-25T05:23:56.323Z,16.89
2017-03-25T05:24:56.260Z,16.79
2017-03-25T05:25:56.195Z,16.89
2017-03-25T05:26:56.433Z,16.79
2017-03-25T05:27:56.076Z,16.69
2017-03-25T05:28:56.010Z,16.69
2017-03-25T05:29:56.248Z,16.99
2017-03-25T05:30:56.185Z,16.79
2017-03-25T05:31:56.125Z,16.79
2017-03-25T05:32:56.059Z,16.79
2017-03-25T05:33:55.998Z,16.99
2017-03-25T05:34:55.933Z,16.89
2017-03-25T05:35:55.870Z,16.79
2017-03-25T05:36:55.809Z,16.89
2017-03-25T05:37:55.748Z,16.79
2017-03-25T05:38:55.685Z,16.89
2017-03-25T05:39:55.621Z,16.69
2017-03-25T05:40:55.563Z,16.5
2017-03-25T05:41:55.498Z,16.6
2017-03-25T05:42:55.438Z,16.31
2017-03-25T05:43:55.373Z,16.11
2017-03-25T05:44:55.309Z,15.92
2017-03-25T05:45:55.249Z,15.92
2017-03-25T05:46:55.186Z,16.21
2017-03-25T05:47:55.120Z,16.11
2017-03-25T05:48:55.058Z,16.31
2017-03-25T05:49:54.994Z,16.02
2017-03-25T05:50:54.936Z,16.11
2017-03-25T05:51:54.871Z,16.21
2017-03-25T05:52:54.810Z,16.11
2017-03-25T05:53:54.748Z,16.11
2017-03-25T05:54:54.691Z,16.02
2017-03-25T05:55:54.619Z,16.11
2017-03-25T05:56:54.560Z,16.02
2017-03-25T05:57:54.498Z,15.92
2017-03-25T05:58:54.435Z,15.92
2017-03-25T05:59:54.371Z,15.92
2017-03-25T06:00:54.407Z,15.92
2017-03-25T06:01:54.252Z,15.92
2017-03-25T06:02:54.186Z,16.02
2017-03-25T06:03:54.121Z,16.11
2017-03-25T06:04:54.058Z,15.92
2017-03-25T06:05:53.994Z,15.83
2017-03-25T06:06:53.946Z,15.92
2017-03-25T06:07:53.870Z,15.92
2017-03-25T06:08:53.818Z,15.92
2017-03-25T06:09:53.745Z,15.92
2017-03-25T06:10:53.685Z,15.83
2017-03-25T06:11:53.321Z,15.92
2017-03-25T06:12:53.559Z,15.73
2017-03-25T06:13:53.197Z,15.83
2017-03-25T06:14:53.433Z,15.63
2017-03-25T06:15:53.371Z,15.83
2017-03-25T06:16:53.308Z,15.92
2017-03-25T06:17:53.244Z,15.83
2017-03-25T06:18:53.230Z,15.92
2017-03-25T06:19:53.119Z,15.73
2017-03-25T06:20:53.057Z,15.73
2017-03-25T06:21:52.993Z,15.92
2017-03-25T06:22:52.932Z,15.92
2017-03-25T06:23:52.869Z,15.92
2017-03-25T06:24:52.811Z,15.92
2017-03-25T06:25:52.745Z,15.83
2017-03-25T06:26:52.682Z,15.83
2017-03-25T06:27:52.620Z,15.63
2017-03-25T06:28:52.557Z,15.63
2017-03-25T06:29:52.492Z,15.53
2017-03-25T06:30:52.433Z,15.73
2017-03-25T06:31:52.369Z,15.53
2017-03-25T06:32:52.309Z,15.73
2017-03-25T06:33:52.246Z,15.73
2017-03-25T06:34:52.191Z,15.73
2017-03-25T06:35:52.220Z,15.73
2017-03-25T06:36:52.060Z,15.73
2017-03-25T06:37:51.996Z,15.63
2017-03-25T06:38:51.932Z,15.63
2017-03-25T06:39:51.870Z,15.73
2017-03-25T06:40:51.806Z,15.73
2017-03-25T06:41:51.444Z,15.63
2017-03-25T06:42:51.685Z,15.44
2017-03-25T06:43:51.622Z,15.73
2017-03-25T06:44:51.555Z,15.63
2017-03-25T06:45:51.494Z,15.73
2017-03-25T06:46:51.430Z,15.63
2017-03-25T06:47:51.369Z,15.63
2017-03-25T06:48:51.310Z,15.83
2017-03-25T06:49:51.243Z,15.53
2017-03-25T06:50:51.179Z,15.73
2017-03-25T06:51:51.115Z,15.44
2017-03-25T06:52:51.055Z,15.44
2017-03-25T06:53:50.993Z,15.63
2017-03-25T06:54:50.928Z,15.63
2017-03-25T06:55:50.869Z,15.53
2017-03-25T06:56:50.506Z,15.63
2017-03-25T06:57:50.745Z,15.63
2017-03-25T06:58:50.682Z,15.63
2017-03-25T06:59:50.619Z,15.63
2017-03-25T07:00:50.555Z,15.44
2017-03-25T07:01:50.491Z,15.63
2017-03-25T07:02:50.430Z,15.63
2017-03-25T07:03:50.368Z,15.63
2017-03-25T07:04:50.306Z,15.53
2017-03-25T07:05:49.955Z,15.53
2017-03-25T07:06:50.179Z,15.63
2017-03-25T07:07:50.120Z,15.63
2017-03-25T07:08:50.055Z,15.63
2017-03-25T07:09:49.990Z,15.53
2017-03-25T07:10:49.927Z,15.44
2017-03-25T07:11:49.868Z,15.44
2017-03-25T07:12:49.808Z,15.63
2017-03-25T07:13:49.443Z,15.73
2017-03-25T07:14:49.681Z,15.63
2017-03-25T07:15:49.619Z,15.63
2017-03-25T07:16:49.552Z,15.63
2017-03-25T07:17:49.492Z,15.73
2017-03-25T07:18:49.430Z,15.63
2017-03-25T07:19:49.367Z,15.63
2017-03-25T07:20:49.303Z,15.63
2017-03-25T07:21:48.942Z,15.63
2017-03-25T07:22:48.880Z,15.53
2017-03-25T07:23:49.116Z,15.53
2017-03-25T07:24:49.054Z,15.53
2017-03-25T07:25:48.989Z,15.63
2017-03-25T07:26:48.976Z,15.53
2017-03-25T07:27:48.878Z,15.63
2017-03-25T07:28:48.804Z,15.44
2017-03-25T07:29:48.742Z,15.73
2017-03-25T07:30:48.676Z,15.53
2017-03-25T07:31:48.615Z,15.44
2017-03-25T07:32:48.567Z,15.53
2017-03-25T07:33:48.495Z,15.53
2017-03-25T07:34:48.427Z,15.44
2017-03-25T07:35:48.364Z,15.53
2017-03-25T07:36:48.301Z,15.73
2017-03-25T07:37:48.241Z,15.73
2017-03-25T07:38:48.178Z,15.63
2017-03-25T07:39:48.116Z,15.83
2017-03-25T07:40:48.056Z,15.63
2017-03-25T07:41:47.987Z,15.73
2017-03-25T07:42:47.929Z,15.53
2017-03-25T07:43:47.864Z,15.53
2017-03-25T07:44:47.502Z,15.83
2017-03-25T07:45:47.738Z,15.53
2017-03-25T07:46:47.676Z,15.63
2017-03-25T07:47:47.617Z,15.63
2017-03-25T07:48:47.553Z,15.73
2017-03-25T07:49:47.490Z,15.63
2017-03-25T07:50:47.425Z,15.73
2017-03-25T07:51:47.364Z,15.53
2017-03-25T07:52:47.302Z,15.63
2017-03-25T07:53:47.241Z,15.83
2017-03-25T07:54:47.176Z,15.63
2017-03-25T07:55:47.113Z,15.73
2017-03-25T07:56:47.049Z,15.73
2017-03-25T07:57:46.989Z,15.63
2017-03-25T07:58:46.925Z,15.73
2017-03-25T07:59:46.863Z,15.73
2017-03-25T08:00:46.800Z,15.63
2017-03-25T08:01:46.738Z,15.73
2017-03-25T08:02:46.677Z,15.63
2017-03-25T08:03:46.627Z,15.73
2017-03-25T08:04:46.550Z,15.83
2017-03-25T08:05:46.490Z,15.63
2017-03-25T08:06:46.425Z,15.73
2017-03-25T08:07:46.364Z,15.53
2017-03-25T08:08:45.999Z,15.53
2017-03-25T08:09:46.238Z,15.73
2017-03-25T08:10:46.180Z,15.53
2017-03-25T08:11:46.115Z,15.73
2017-03-25T08:12:46.048Z,15.63
2017-03-25T08:13:46.038Z,15.53
2017-03-25T08:14:45.923Z,15.73
2017-03-25T08:15:45.860Z,15.53
2017-03-25T08:16:45.798Z,15.53
2017-03-25T08:17:45.744Z,15.73
2017-03-25T08:18:45.674Z,15.63
2017-03-25T08:19:45.611Z,15.53
2017-03-25T08:20:45.550Z,15.73
2017-03-25T08:21:45.486Z,15.83
2017-03-25T08:22:45.423Z,15.63
2017-03-25T08:23:45.369Z,15.73
2017-03-25T08:24:45.296Z,15.63
2017-03-25T08:25:45.235Z,15.73
2017-03-25T08:26:44.870Z,15.53
2017-03-25T08:27:44.811Z,15.63
2017-03-25T08:28:45.048Z,15.53
2017-03-25T08:29:44.985Z,15.63
2017-03-25T08:30:44.924Z,15.63
2017-03-25T08:31:44.859Z,15.44
2017-03-25T08:32:44.795Z,15.63
2017-03-25T08:33:44.734Z,15.44
2017-03-25T08:34:44.670Z,15.44
2017-03-25T08:35:44.607Z,15.63
2017-03-25T08:36:44.551Z,15.53
2017-03-25T08:37:44.483Z,15.53
2017-03-25T08:38:44.420Z,15.25
2017-03-25T08:39:44.361Z,15.25
2017-03-25T08:40:44.303Z,15.25
2017-03-25T08:41:44.231Z,15.25
2017-03-25T08:42:44.170Z,15.15
2017-03-25T08:43:44.164Z,15.25
2017-03-25T08:44:44.043Z,14.86
2017-03-25T08:45:43.983Z,15.25
2017-03-25T08:46:43.918Z,14.86
2017-03-25T08:47:43.856Z,14.67
2017-03-25T08:48:43.497Z,15.15
2017-03-25T08:49:43.734Z,14.95
2017-03-25T08:50:43.670Z,14.67
2017-03-25T08:51:43.605Z,14.86
2017-03-25T08:52:43.544Z,14.95
2017-03-25T08:53:43.485Z,15.15
2017-03-25T08:54:43.419Z,15.15
2017-03-25T08:55:43.368Z,14.86
2017-03-25T08:56:43.293Z,15.34
2017-03-25T08:57:43.235Z,15.05
2017-03-25T08:58:43.170Z,15.15
2017-03-25T08:59:43.108Z,14.76
2017-03-25T09:00:43.045Z,15.05
2017-03-25T09:01:42.983Z,15.25
2017-03-25T09:02:42.918Z,15.15
2017-03-25T09:03:42.857Z,15.05
2017-03-25T09:04:42.799Z,14.47
2017-03-25T09:05:42.730Z,14.47
2017-03-25T09:06:42.667Z,14.38
2017-03-25T09:07:42.610Z,14.57
2017-03-25T09:08:42.547Z,14.86
2017-03-25T09:09:42.480Z,14.67
2017-03-25T09:10:42.422Z,14.67
2017-03-25T09:11:42.355Z,14.47
2017-03-25T09:12:42.294Z,14.67
2017-03-25T09:13:42.229Z,14.47
2017-03-25T09:14:42.166Z,14.28
2017-03-25T09:15:42.104Z,14.18
2017-03-25T09:16:42.041Z,14.38
2017-03-25T09:17:41.980Z,14.38
2017-03-25T09:18:41.916Z,14.09
2017-03-25T09:19:41.856Z,13.9
2017-03-25T09:20:41.792Z,13.8
2017-03-25T09:21:41.729Z,13.8
2017-03-25T09:22:41.669Z,13.6
2017-03-25T09:23:41.603Z,13.9
2017-03-25T09:24:41.541Z,13.7
2017-03-25T09:25:41.479Z,13.32
2017-03-25T09:26:41.416Z,13.6
2017-03-25T09:27:41.405Z,13.22
2017-03-25T09:28:41.290Z,13.02
2017-03-25T09:29:41.234Z,13.02
2017-03-25T09:30:41.167Z,13.12
2017-03-25T09:31:41.107Z,13.51
2017-03-25T09:32:41.041Z,12.84
2017-03-25T09:33:40.977Z,12.84
2017-03-25T09:34:40.916Z,12.93
2017-03-25T09:35:40.852Z,12.84
2017-03-25T09:36:40.789Z,12.84
2017-03-25T09:37:40.727Z,12.54
2017-03-25T09:38:40.664Z,12.54
2017-03-25T09:39:40.603Z,12.54
2017-03-25T09:40:40.539Z,12.93
2017-03-25T09:41:40.478Z,12.64
2017-03-25T09:42:40.413Z,12.64
2017-03-25T09:43:40.353Z,12.74
2017-03-25T09:44:40.287Z,12.54
2017-03-25T09:45:40.227Z,12.45
2017-03-25T09:46:40.162Z,12.45
2017-03-25T09:47:40.104Z,12.26
2017-03-25T09:48:40.039Z,12.35
2017-03-25T09:49:39.981Z,11.96
2017-03-25T09:50:39.913Z,12.26
2017-03-25T09:51:39.851Z,12.16
2017-03-25T09:52:39.492Z,12.06
2017-03-25T09:53:39.726Z,12.16
2017-03-25T09:54:39.670Z,12.26
2017-03-25T09:55:39.600Z,11.87
2017-03-25T09:56:39.538Z,11.96
2017-03-25T09:57:39.473Z,11.87
2017-03-25T09:58:39.417Z,11.87
2017-03-25T09:59:39.353Z,11.87
2017-03-25T10:00:39.287Z,11.96
2017-03-25T10:01:39.225Z,11.77
2017-03-25T10:02:39.162Z,12.16
2017-03-25T10:03:39.105Z,12.06
2017-03-25T10:04:39.034Z,11.77
2017-03-25T10:05:38.973Z,11.68
2017-03-25T10:06:38.910Z,12.16
2017-03-25T10:07:38.848Z,11.68
2017-03-25T10:08:38.791Z,11.68
2017-03-25T10:09:38.722Z,11.77
2017-03-25T10:10:38.660Z,11.96
2017-03-25T10:11:38.598Z,11.87
2017-03-25T10:12:38.543Z,11.68
2017-03-25T10:13:38.475Z,11.77
2017-03-25T10:14:38.410Z,11.87
2017-03-25T10:15:38.347Z,11.77
2017-03-25T10:16:38.286Z,11.77
2017-03-25T10:17:38.223Z,11.77
2017-03-25T10:18:38.162Z,11.58
2017-03-25T10:19:38.098Z,11.68
2017-03-25T10:20:38.035Z,11.48
2017-03-25T10:21:37.971Z,11.68
2017-03-25T10:22:37.913Z,11.77
2017-03-25T10:23:37.846Z,11.77
2017-03-25T10:24:37.787Z,11.77
2017-03-25T10:25:37.729Z,11.77
2017-03-25T10:26:37.659Z,11.68
2017-03-25T10:27:37.594Z,11.48
2017-03-25T10:28:37.538Z,11.38
2017-03-25T10:29:37.474Z,11.29
2017-03-25T10:30:37.411Z,11
2017-03-25T10:31:37.349Z,11.1
2017-03-25T10:32:37.285Z,11.1
2017-03-25T10:33:37.221Z,11.1
2017-03-25T10:34:37.157Z,11
2017-03-25T10:35:37.098Z,11
2017-03-25T10:36:37.032Z,11.38
2017-03-25T10:37:36.974Z,11.19
2017-03-25T10:38:36.908Z,11.1
2017-03-25T10:39:36.845Z,11.1
2017-03-25T10:40:36.781Z,11.29
2017-03-25T10:41:36.719Z,11.19
2017-03-25T10:42:36.658Z,11.1
2017-03-25T10:43:36.595Z,11.38
2017-03-25T10:44:36.530Z,11.38
2017-03-25T10:45:36.468Z,11.29
2017-03-25T10:46:36.408Z,11.1
2017-03-25T10:47:36.347Z,11.29
2017-03-25T10:48:36.287Z,11.19
2017-03-25T10:49:36.219Z,11.1
2017-03-25T10:50:36.157Z,10.81
2017-03-25T10:51:35.799Z,10.81
2017-03-25T10:52:36.033Z,10.81
2017-03-25T10:53:35.967Z,10.9
2017-03-25T10:54:35.907Z,10.9
2017-03-25T10:55:35.843Z,10.9
2017-03-25T10:56:35.782Z,10.9
2017-03-25T10:57:35.720Z,10.9
2017-03-25T10:58:35.657Z,11
2017-03-25T10:59:35.592Z,11.1
2017-03-25T11:00:35.763Z,11
2017-03-25T11:01:35.473Z,10.9
2017-03-25T11:02:35.404Z,10.9
2017-03-25T11:03:35.350Z,11.1
2017-03-25T11:04:35.278Z,11
2017-03-25T11:05:34.918Z,11
2017-03-25T11:06:35.157Z,10.9
2017-03-25T11:07:35.093Z,11.1
2017-03-25T11:08:35.030Z,10.9
2017-03-25T11:09:34.967Z,11
2017-03-25T11:10:34.902Z,11.1
2017-03-25T11:11:34.841Z,11
2017-03-25T11:12:34.780Z,10.9
2017-03-25T11:13:34.417Z,11.1
2017-03-25T11:14:34.654Z,10.9
2017-03-25T11:15:34.591Z,11.1
2017-03-25T11:16:34.526Z,11.1
2017-03-25T11:17:34.463Z,11.1
2017-03-25T11:18:34.404Z,11
2017-03-25T11:19:34.340Z,11
2017-03-25T11:20:34.277Z,11
2017-03-25T11:21:34.213Z,10.9
2017-03-25T11:22:34.151Z,10.71
2017-03-25T11:23:34.092Z,11
2017-03-25T11:24:34.026Z,10.81
2017-03-25T11:25:33.963Z,11
2017-03-25T11:26:33.902Z,11
2017-03-25T11:27:33.540Z,10.9
2017-03-25T11:28:33.779Z,11.1
2017-03-25T11:29:33.460Z,11.1
2017-03-25T11:30:33.651Z,10.9
2017-03-25T11:31:33.589Z,11
2017-03-25T11:32:33.526Z,10.81
2017-03-25T11:33:33.465Z,10.81
2017-03-25T11:34:33.405Z,10.9
2017-03-25T11:35:33.338Z,10.81
2017-03-25T11:36:32.974Z,11
2017-03-25T11:37:33.215Z,10.9
2017-03-25T11:38:33.163Z,11
2017-03-25T11:39:33.148Z,11
2017-03-25T11:40:33.032Z,11
2017-03-25T11:41:32.966Z,11.1
2017-03-25T11:42:32.900Z,10.9
2017-03-25T11:43:32.537Z,11.1
2017-03-25T11:44:32.474Z,10.9
2017-03-25T11:45:32.717Z,11
2017-03-25T11:46:32.649Z,11
2017-03-25T11:47:32.588Z,10.9
2017-03-25T11:48:32.524Z,11
2017-03-25T11:49:32.464Z,10.81
2017-03-25T11:50:32.399Z,11.19
2017-03-25T11:51:32.335Z,11.1
2017-03-25T11:52:32.279Z,10.9
2017-03-25T11:53:32.213Z,10.9
2017-03-25T11:54:32.150Z,11
2017-03-25T11:55:32.084Z,10.9
2017-03-25T11:56:32.023Z,11.1
2017-03-25T11:57:31.959Z,10.81
2017-03-25T11:58:31.899Z,11
2017-03-25T11:59:31.837Z,11
2017-03-25T12:00:31.773Z,11
2017-03-25T12:01:31.711Z,11
2017-03-25T12:02:31.648Z,11
2017-03-25T12:03:31.587Z,11
2017-03-25T12:04:31.523Z,11.1
2017-03-25T12:05:31.461Z,11.1
2017-03-25T12:06:31.398Z,11
2017-03-25T12:07:31.335Z,10.9
2017-03-25T12:08:31.273Z,10.9
2017-03-25T12:09:31.212Z,11.1
2017-03-25T12:10:31.148Z,11.1
2017-03-25T12:11:31.087Z,11.1
2017-03-25T12:12:31.030Z,11.1
2017-03-25T12:13:30.962Z,10.81
2017-03-25T12:14:30.897Z,10.9
2017-03-25T12:15:30.834Z,10.9
2017-03-25T12:16:30.772Z,11.19
2017-03-25T12:17:30.709Z,11
2017-03-25T12:18:30.651Z,11.1
2017-03-25T12:19:30.585Z,10.9
2017-03-25T12:20:30.522Z,11.1
2017-03-25T12:21:30.460Z,11
2017-03-25T12:22:30.405Z,10.9
2017-03-25T12:23:30.336Z,11.1
2017-03-25T12:24:30.273Z,11
2017-03-25T12:25:30.208Z,11
2017-03-25T12:26:30.147Z,11.19
2017-03-25T12:27:30.082Z,10.81
2017-03-25T12:28:30.021Z,11
2017-03-25T12:29:29.959Z,11.19
2017-03-25T12:30:29.940Z,11
2017-03-25T12:31:29.834Z,10.71
2017-03-25T12:32:29.771Z,10.9
2017-03-25T12:33:29.412Z,10.9
2017-03-25T12:34:29.645Z,11
2017-03-25T12:35:29.583Z,10.81
2017-03-25T12:36:29.520Z,11
2017-03-25T12:37:29.457Z,10.9
2017-03-25T12:38:29.396Z,10.81
2017-03-25T12:39:29.335Z,11
2017-03-25T12:40:29.269Z,11
2017-03-25T12:41:29.256Z,11.19
2017-03-25T12:42:29.146Z,11
2017-03-25T12:43:29.097Z,11
2017-03-25T12:44:29.026Z,11.19
2017-03-25T12:45:28.958Z,11
2017-03-25T12:46:28.897Z,10.9
2017-03-25T12:47:28.834Z,11.1
2017-03-25T12:48:28.779Z,10.81
2017-03-25T12:49:28.409Z,10.81
2017-03-25T12:50:28.645Z,10.9
2017-03-25T12:51:28.283Z,10.81
2017-03-25T12:52:28.526Z,10.81
2017-03-25T12:53:28.458Z,10.71
2017-03-25T12:54:28.398Z,11.19
2017-03-25T12:55:28.332Z,11
2017-03-25T12:56:28.270Z,11.1
2017-03-25T12:57:28.207Z,11.1
2017-03-25T12:58:28.144Z,11.19
2017-03-25T12:59:28.081Z,11.29
2017-03-25T13:00:28.018Z,11.29